X  Zamknij Lotniskowe dane METAR     LBPD Plovdiv International Airport
Temperatura
45°F Temperatura
45°F Punkt rosy
100% Wilgotność



Wiatr
6 MPH
10 KM/H
3 M/S
5 KTS



90°
E
Warunki bieżące

Zamglenie Zamglenie
Ciśnienie 1015.92 (hPa) - 30 (inHg)
Widoczność 1.5 (mil) - 2.4 (km)
Lotnisko
Kod lotniska LBPD

Położenie: Plovdiv International Airport
Odległość: 14 (mi)

Metar:
LBPD 010600Z AUTO 09005KT 2400 BR OVC003/// 07/07 Q1016 TEMPO 1500 BR

Czas: 01-03-2024 08:00 EET